Time;durP1;ratioP1;P1;durP2;ratioP2;P2;SDS_P1;SDS_P2;PMS_P1;PMS_P2;Temp;Humidity;BMP_temperature;BMP_pressure;BME280_temperature;BME280_humidity;BME280_pressure;Samples;Min_cycle;Max_cycle;Signal;HPM_P1;HPM_P2
2023/03/12 00:01:00;;;;;;;1999.90;999.90;;;;;;;0.61;100.00;94887.47;5084129;28;20209;-63
2023/03/12 00:03:25;;;;;;;1999.90;999.90;;;;;;;0.59;100.00;94874.41;5084205;28;20172;-63
2023/03/12 00:05:51;;;;;;;1999.90;999.90;;;;;;;0.60;100.00;94886.69;5084555;28;20329;-63
2023/03/12 00:08:16;;;;;;;1999.90;999.90;;;;;;;0.52;100.00;94882.31;5084102;28;20199;-62
2023/03/12 00:10:41;;;;;;;1999.90;999.90;;;;;;;0.51;100.00;94888.78;5084174;28;20171;-63
2023/03/12 00:13:07;;;;;;;1999.90;999.90;;;;;;;0.53;100.00;94875.78;5083852;28;20204;-66
2023/03/12 00:15:37;;;;;;;1999.90;999.90;;;;;;;0.52;100.00;94882.31;5084027;28;20176;-63
2023/03/12 00:18:02;;;;;;;1999.90;999.90;;;;;;;0.50;100.00;94876.50;5084472;28;20245;-64
2023/03/12 00:20:28;;;;;;;1999.90;999.90;;;;;;;0.52;100.00;94878.84;5084467;28;20401;-64
2023/03/12 00:22:53;;;;;;;1999.90;999.90;;;;;;;0.57;100.00;94881.22;5083909;28;20198;-61
2023/03/12 00:25:20;;;;;;;1999.90;999.90;;;;;;;0.55;100.00;94878.13;5084446;28;20168;-61
2023/03/12 00:27:45;;;;;;;1999.90;999.90;;;;;;;0.57;100.00;94876.66;5083777;28;20230;-61
2023/03/12 00:30:11;;;;;;;1999.90;999.90;;;;;;;0.56;100.00;94874.31;5084147;28;20230;-62
2023/03/12 00:32:37;;;;;;;1999.90;999.90;;;;;;;0.56;100.00;94883.16;5083709;28;20204;-63
2023/03/12 00:35:03;;;;;;;1999.90;999.90;;;;;;;0.61;100.00;94882.09;5084306;28;20303;-62
2023/03/12 00:37:29;;;;;;;1999.90;999.90;;;;;;;0.67;100.00;94889.53;5083646;28;20225;-62
2023/03/12 00:39:54;;;;;;;1999.90;999.90;;;;;;;0.71;100.00;94887.69;5083824;28;20390;-61
2023/03/12 00:42:20;;;;;;;1999.90;999.90;;;;;;;0.70;100.00;94879.97;5083631;28;20167;-62
2023/03/12 00:44:45;;;;;;;1999.90;999.90;;;;;;;0.67;100.00;94880.69;5083749;28;20172;-62
2023/03/12 00:47:11;;;;;;;1999.90;999.90;;;;;;;0.67;100.00;94897.59;5083271;28;20255;-62
2023/03/12 00:49:37;;;;;;;1999.90;999.90;;;;;;;0.61;100.00;94887.47;5083690;28;20167;-62
2023/03/12 00:52:03;;;;;;;1999.90;999.90;;;;;;;0.55;100.00;94881.59;5083520;28;20242;-62
2023/03/12 00:54:28;;;;;;;1999.90;999.90;;;;;;;0.53;100.00;94881.16;5083588;28;20321;-62
2023/03/12 00:56:54;;;;;;;1999.90;999.90;;;;;;;0.48;100.00;94889.50;5084022;28;20175;-61
2023/03/12 00:59:19;;;;;;;1999.90;999.90;;;;;;;0.43;100.00;94881.72;5084366;28;20173;-62
2023/03/12 01:01:44;;;;;;;1999.90;999.90;;;;;;;0.38;100.00;94883.91;5083807;28;20176;-62
2023/03/12 01:04:10;;;;;;;1999.90;999.90;;;;;;;0.32;100.00;94880.72;5083956;28;20189;-62
2023/03/12 01:06:36;;;;;;;1999.90;999.90;;;;;;;0.29;100.00;94880.66;5083923;28;20164;-62
2023/03/12 01:09:04;;;;;;;1999.90;999.90;;;;;;;0.30;100.00;94882.97;5083531;28;20231;-62
2023/03/12 01:11:31;;;;;;;1999.90;999.90;;;;;;;0.29;100.00;94877.97;5083332;28;20199;-62
2023/03/12 01:13:57;;;;;;;1999.90;999.90;;;;;;;0.25;100.00;94888.59;5083395;28;20361;-62
2023/03/12 01:16:26;;;;;;;1999.90;999.90;;;;;;;0.23;100.00;94888.19;5083460;28;20171;-62
2023/03/12 01:18:52;;;;;;;1999.90;999.90;;;;;;;0.24;100.00;94895.09;5083305;28;20296;-62
2023/03/12 01:21:18;;;;;;;1999.90;999.90;;;;;;;0.20;100.00;94883.50;5083591;28;20168;-62
2023/03/12 01:23:43;;;;;;;1999.90;999.90;;;;;;;0.15;100.00;94880.31;5083427;28;20165;-62
2023/03/12 01:26:08;;;;;;;1999.90;999.90;;;;;;;0.15;100.00;94886.47;5083423;28;20176;-64
2023/03/12 01:28:34;;;;;;;1999.90;999.90;;;;;;;0.20;100.00;94894.25;5083548;28;20283;-62
2023/03/12 01:31:08;;;;;;;1999.90;999.90;;;;;;;0.23;100.00;94876.66;5083191;28;20175;-62
2023/03/12 01:33:34;;;;;;;1999.90;999.90;;;;;;;0.27;100.00;94883.69;5083791;28;20165;-62
2023/03/12 01:35:59;;;;;;;1999.90;999.90;;;;;;;0.32;100.00;94901.44;5083663;28;20215;-62
2023/03/12 01:38:24;;;;;;;1999.90;999.90;;;;;;;0.39;100.00;94902.34;5083652;28;20234;-62
2023/03/12 01:40:50;;;;;;;1999.90;999.90;;;;;;;0.48;100.00;94894.88;5083237;28;20245;-62
2023/03/12 01:43:32;;;;;;;1999.90;999.90;;;;;;;0.51;100.00;94899.53;5085126;28;20168;-61
2023/03/12 01:46:15;;;;;;;1999.90;999.90;;;;;;;0.46;100.00;94894.44;5086735;28;20463;-61
2023/03/12 01:48:45;;;;;;;1999.90;999.90;;;;;;;0.58;100.00;94883.56;5086772;28;20239;-61
2023/03/12 01:51:13;;;;;;;1999.90;999.90;;;;;;;0.63;100.00;94890.56;5087126;28;20173;-62
2023/03/12 01:53:43;;;;;;;1999.90;999.90;;;;;;;0.68;100.00;94888.38;5086570;28;20185;-62
2023/03/12 01:56:09;;;;;;;1999.90;999.90;;;;;;;0.80;100.00;94879.41;5086505;28;20170;-62
2023/03/12 01:58:37;;;;;;;1999.90;999.90;;;;;;;0.85;100.00;94881.81;5086936;28;20178;-62
2023/03/12 02:01:03;;;;;;;1999.90;999.90;;;;;;;0.97;100.00;94878.97;5086599;28;20171;-62
2023/03/12 02:03:30;;;;;;;1999.90;999.90;;;;;;;1.03;100.00;94891.78;5086569;28;20169;-62
2023/03/12 02:06:01;;;;;;;1999.90;999.90;;;;;;;1.06;100.00;94880.31;5086293;28;20171;-62
2023/03/12 02:08:27;;;;;;;1999.90;999.90;;;;;;;1.14;100.00;94890.09;5086981;28;20171;-62
2023/03/12 02:10:52;;;;;;;1999.90;999.90;;;;;;;1.19;100.00;94895.16;5086758;28;20168;-62
2023/03/12 02:13:18;;;;;;;1999.90;999.90;;;;;;;1.22;100.00;94891.75;5086307;28;20193;-61
2023/03/12 02:15:44;;;;;;;1999.90;999.90;;;;;;;1.16;100.00;94893.19;5086155;28;20172;-62
2023/03/12 02:18:13;;;;;;;1999.90;999.90;;;;;;;1.18;100.00;94899.00;5086150;28;20192;-62
2023/03/12 02:20:39;;;;;;;1999.90;999.90;;;;;;;1.17;100.00;94904.72;5086152;28;20196;-63
2023/03/12 02:23:40;;;;;;;1999.90;999.90;;;;;;;1.17;100.00;94910.84;5086489;28;20184;-63
2023/03/12 02:26:06;;;;;;;1999.90;999.90;;;;;;;1.12;100.00;94916.53;5054624;28;20233;-63
2023/03/12 02:28:41;;;;;;;1999.90;999.90;;;;;;;1.12;100.00;94919.22;5085839;28;20221;-63
2023/03/12 02:31:07;;;;;;;1999.90;999.90;;;;;;;1.07;100.00;94919.50;5086555;28;20176;-62
2023/03/12 02:33:33;;;;;;;1999.90;999.90;;;;;;;0.99;100.00;94917.03;5085868;28;20172;-62
2023/03/12 02:35:58;;;;;;;1999.90;999.90;;;;;;;0.92;100.00;94919.56;5085784;28;20189;-62
2023/03/12 02:38:27;;;;;;;1999.90;999.90;;;;;;;0.84;100.00;94918.63;5086045;28;20221;-62
2023/03/12 02:40:54;;;;;;;1999.90;999.90;;;;;;;0.72;100.00;94921.47;5085766;28;20172;-62
2023/03/12 02:43:21;;;;;;;1999.90;999.90;;;;;;;0.57;100.00;94922.31;5085629;28;20263;-61
2023/03/12 02:45:47;;;;;;;1999.90;999.90;;;;;;;0.53;100.00;94918.75;5085523;28;20169;-61
2023/03/12 02:48:12;;;;;;;1999.90;999.90;;;;;;;0.49;100.00;94917.91;5085568;28;20198;-61
2023/03/12 02:50:38;;;;;;;1999.90;999.90;;;;;;;0.47;100.00;94908.66;5086037;28;20168;-62
2023/03/12 02:53:03;;;;;;;1999.90;999.90;;;;;;;0.42;100.00;94916.97;5085200;28;20203;-61
2023/03/12 02:55:28;;;;;;;1999.90;999.90;;;;;;;0.41;100.00;94921.56;5085369;28;20213;-61
2023/03/12 02:57:54;;;;;;;1999.90;999.90;;;;;;;0.38;100.00;94918.78;5085380;28;20164;-61
2023/03/12 03:00:19;;;;;;;1999.90;999.90;;;;;;;0.35;100.00;94922.97;5085903;28;20173;-61
2023/03/12 03:02:45;;;;;;;1999.90;999.90;;;;;;;0.37;100.00;94919.94;5085357;28;20200;-61
2023/03/12 03:05:11;;;;;;;1999.90;999.90;;;;;;;0.43;100.00;94923.91;5085406;28;20246;-61
2023/03/12 03:07:36;;;;;;;1999.90;999.90;;;;;;;0.43;100.00;94926.59;5085217;28;20422;-62
2023/03/12 03:10:03;;;;;;;1999.90;999.90;;;;;;;0.46;100.00;94928.56;5085184;28;20174;-62
2023/03/12 03:12:34;;;;;;;1999.90;999.90;;;;;;;0.48;100.00;94929.00;5085256;28;20200;-61
2023/03/12 03:15:00;;;;;;;1999.90;999.90;;;;;;;0.45;100.00;94917.06;5085141;28;20174;-61
2023/03/12 03:17:27;;;;;;;1999.90;999.90;;;;;;;0.47;100.00;94930.13;5084985;28;20195;-61
2023/03/12 03:19:52;;;;;;;1999.90;999.90;;;;;;;0.50;100.00;94930.19;5084960;28;20271;-61
2023/03/12 03:22:19;;;;;;;1999.90;999.90;;;;;;;0.55;100.00;94932.63;5085299;28;20176;-61
2023/03/12 03:24:45;;;;;;;1999.90;999.90;;;;;;;0.58;100.00;94931.16;5084983;28;20255;-61
2023/03/12 03:27:11;;;;;;;1999.90;999.90;;;;;;;0.63;100.00;94928.19;5084651;28;20220;-61
2023/03/12 03:29:36;;;;;;;1999.90;999.90;;;;;;;0.65;100.00;94931.31;5084659;28;20168;-61
2023/03/12 03:32:02;;;;;;;1999.90;999.90;;;;;;;0.71;100.00;94933.34;5084379;28;20204;-61
2023/03/12 03:34:27;;;;;;;1999.90;999.90;;;;;;;0.80;100.00;94928.53;5084788;28;20173;-61
2023/03/12 03:36:53;;;;;;;1999.90;999.90;;;;;;;0.83;100.00;94922.47;5085154;28;20168;-61
2023/03/12 03:39:19;;;;;;;1999.90;999.90;;;;;;;0.88;100.00;94932.94;5084494;28;20276;-61
2023/03/12 03:41:46;;;;;;;1999.90;999.90;;;;;;;0.94;100.00;94928.84;5085022;28;20444;-61
2023/03/12 03:44:12;;;;;;;1999.90;999.90;;;;;;;1.00;100.00;94924.75;5084459;28;20168;-61
2023/03/12 03:46:37;;;;;;;1999.90;999.90;;;;;;;1.06;100.00;94926.00;5084477;28;20241;-62
2023/03/12 03:49:03;;;;;;;1999.90;999.90;;;;;;;1.10;100.00;94918.03;5084452;28;20178;-62
2023/03/12 03:51:28;;;;;;;1999.90;999.90;;;;;;;1.18;100.00;94923.19;5084390;28;20387;-62
2023/03/12 03:53:53;;;;;;;1999.90;999.90;;;;;;;1.21;100.00;94933.22;5084677;28;20211;-62
2023/03/12 03:56:19;;;;;;;1999.90;999.90;;;;;;;1.21;100.00;94933.22;5084348;28;20224;-62
2023/03/12 03:58:44;;;;;;;1999.90;999.90;;;;;;;1.27;100.00;94934.47;5084656;28;20169;-61
2023/03/12 04:01:12;;;;;;;1999.90;999.90;;;;;;;1.30;100.00;94931.09;5084392;28;20356;-62
2023/03/12 04:03:38;;;;;;;1999.90;999.90;;;;;;;1.32;100.00;94939.59;5084790;28;20173;-63
2023/03/12 04:06:04;;;;;;;1999.90;999.90;;;;;;;1.35;100.00;94944.22;5083618;28;20189;-63
2023/03/12 04:08:31;;;;;;;1999.90;999.90;;;;;;;1.42;100.00;94949.00;5084077;28;20171;-63
2023/03/12 04:10:57;;;;;;;1999.90;999.90;;;;;;;1.48;100.00;94953.72;5084175;28;20170;-62
2023/03/12 04:13:23;;;;;;;1999.90;999.90;;;;;;;1.51;100.00;94946.84;5084609;28;20275;-62
2023/03/12 04:15:52;;;;;;;1999.90;999.90;;;;;;;1.53;100.00;94950.72;5084187;28;20189;-62
2023/03/12 04:18:18;;;;;;;1999.90;999.90;;;;;;;1.57;100.00;94951.56;5084321;28;20187;-63
2023/03/12 04:20:43;;;;;;;1999.90;999.90;;;;;;;1.60;100.00;94960.84;5083962;28;20192;-62
2023/03/12 04:23:09;;;;;;;1999.90;999.90;;;;;;;1.61;100.00;94963.19;5084358;28;20173;-62
2023/03/12 04:25:34;;;;;;;1999.90;999.90;;;;;;;1.63;100.00;94963.59;5084197;28;20188;-62
2023/03/12 04:28:00;;;;;;;1999.90;999.90;;;;;;;1.65;100.00;94961.34;5083723;28;20212;-63
2023/03/12 04:30:26;;;;;;;1999.90;999.90;;;;;;;1.65;100.00;94961.34;5084659;28;20161;-63
2023/03/12 04:32:52;;;;;;;1999.90;999.90;;;;;;;1.68;100.00;94957.16;5083788;28;20185;-63
2023/03/12 04:35:18;;;;;;;1999.90;999.90;;;;;;;1.71;100.00;94951.06;5084497;28;20165;-62
2023/03/12 04:37:44;;;;;;;1999.90;999.90;;;;;;;1.71;100.00;94954.50;5084368;28;20167;-63
2023/03/12 04:40:10;;;;;;;1999.90;999.90;;;;;;;1.74;100.00;94950.31;5084385;28;20165;-63
2023/03/12 04:42:35;;;;;;;1999.90;999.90;;;;;;;1.75;100.00;94955.34;5083248;28;20177;-62
2023/03/12 04:45:03;;;;;;;1999.90;999.90;;;;;;;1.77;100.00;94955.00;5066391;28;20180;-63
2023/03/12 04:47:30;;;;;;;1999.90;999.90;;;;;;;1.76;100.00;94959.63;5066576;28;20268;-63
2023/03/12 04:49:55;;;;;;;1999.90;999.90;;;;;;;1.80;100.00;94955.06;5066650;28;20424;-64
2023/03/12 04:52:20;;;;;;;1999.90;999.90;;;;;;;1.82;100.00;94962.78;5066662;28;20528;-63
2023/03/12 04:54:46;;;;;;;1999.90;999.90;;;;;;;1.80;100.00;94957.78;5066027;28;20201;-64
2023/03/12 04:57:11;;;;;;;1999.90;999.90;;;;;;;1.81;100.00;94955.84;5082925;28;20268;-64
2023/03/12 04:59:37;;;;;;;1999.90;999.90;;;;;;;1.79;100.00;94953.50;5066138;28;20203;-63
2023/03/12 05:02:02;;;;;;;1999.90;999.90;;;;;;;1.72;100.00;94939.94;5066112;28;20177;-64
2023/03/12 05:04:27;;;;;;;1999.90;999.90;;;;;;;1.55;100.00;94932.31;5066152;28;20172;-64
2023/03/12 05:06:53;;;;;;;1999.90;999.90;;;;;;;1.55;100.00;94932.31;5065990;28;20256;-65
2023/03/12 05:09:18;;;;;;;1999.90;999.90;;;;;;;1.55;100.00;94937.72;5066020;28;20173;-63
2023/03/12 05:11:43;;;;;;;1999.90;999.90;;;;;;;1.52;100.00;94916.91;5065925;28;20363;-64
2023/03/12 05:14:11;;;;;;;1999.90;999.90;;;;;;;1.53;100.00;94928.44;5078811;28;20173;-63
2023/03/12 05:16:36;;;;;;;1999.90;999.90;;;;;;;1.54;100.00;94925.41;5083489;28;20207;-62
2023/03/12 05:19:03;;;;;;;1999.90;999.90;;;;;;;1.50;100.00;94924.56;5087577;28;20161;-62
2023/03/12 05:21:28;;;;;;;1999.90;999.90;;;;;;;1.48;100.00;94926.81;5087342;28;20165;-63
2023/03/12 05:23:54;;;;;;;1999.90;999.90;;;;;;;1.51;100.00;94923.41;5087140;28;20168;-63
2023/03/12 05:26:30;;;;;;;1999.90;999.90;;;;;;;1.50;100.00;94921.88;5087466;28;20227;-64
2023/03/12 05:28:56;;;;;;;1999.90;999.90;;;;;;;1.45;100.00;94914.09;5087153;28;20172;-62
2023/03/12 05:31:21;;;;;;;1999.90;999.90;;;;;;;1.49;100.00;94917.59;5087429;28;20244;-62
2023/03/12 05:33:47;;;;;;;1999.90;999.90;;;;;;;1.52;100.00;94918.81;5087055;28;20176;-63
2023/03/12 05:36:13;;;;;;;1999.90;999.90;;;;;;;1.52;100.00;94916.91;5086903;28;20165;-62
2023/03/12 05:38:39;;;;;;;1999.90;999.90;;;;;;;1.60;100.00;94917.81;5087359;28;20173;-63
2023/03/12 05:41:05;;;;;;;1999.90;999.90;;;;;;;1.67;100.00;94926.00;5086868;28;20165;-63
2023/03/12 05:43:31;;;;;;;1999.90;999.90;;;;;;;1.70;100.00;94917.19;5087185;28;20186;-62
2023/03/12 05:46:02;;;;;;;1999.90;999.90;;;;;;;1.76;100.00;94919.25;5086574;28;20173;-63
2023/03/12 05:48:28;;;;;;;1999.90;999.90;;;;;;;1.81;100.00;94924.31;5086427;28;20185;-63
2023/03/12 05:50:54;;;;;;;1999.90;999.90;;;;;;;1.88;100.00;94915.59;5086723;28;20211;-63
2023/03/12 05:53:19;;;;;;;1999.90;999.90;;;;;;;1.93;100.00;94924.13;5086924;28;20208;-63
2023/03/12 05:55:45;;;;;;;1999.90;999.90;;;;;;;1.99;100.00;94932.69;5087188;28;20244;-64
2023/03/12 05:58:10;;;;;;;1999.90;999.90;;;;;;;2.08;100.00;94939.38;5087185;28;20169;-62
2023/03/12 06:00:37;;;;;;;1999.90;999.90;;;;;;;2.14;100.00;94932.56;5086930;28;20176;-64
2023/03/12 06:03:05;;;;;;;1999.90;999.90;;;;;;;2.23;100.00;94945.78;5087342;28;20169;-63
2023/03/12 06:05:32;;;;;;;1999.90;999.90;;;;;;;2.31;100.00;94928.59;5086787;28;20481;-64
2023/03/12 06:07:58;;;;;;;1999.90;999.90;;;;;;;2.37;100.00;94933.31;5086991;28;20166;-65
2023/03/12 06:10:23;;;;;;;1999.90;999.90;;;;;;;2.43;100.00;94929.16;5086303;28;20241;-64
2023/03/12 06:12:49;;;;;;;1999.90;999.90;;;;;;;2.56;100.00;94932.44;5086227;28;20234;-63
2023/03/12 06:15:14;;;;;;;1999.90;999.90;;;;;;;2.62;100.00;94925.59;5086451;28;20169;-63
2023/03/12 06:17:40;;;;;;;1999.90;999.90;;;;;;;2.73;100.00;94921.13;5086758;28;20176;-64
2023/03/12 06:20:06;;;;;;;1999.90;999.90;;;;;;;2.81;100.00;94928.16;5086157;28;20176;-62
2023/03/12 06:22:32;;;;;;;1999.90;999.90;;;;;;;2.81;100.00;94918.16;5086117;28;20219;-64
2023/03/12 06:24:57;;;;;;;1999.90;999.90;;;;;;;2.89;100.00;94919.81;5086107;28;20169;-63
2023/03/12 06:27:23;;;;;;;1999.90;999.90;;;;;;;2.94;100.00;94919.47;5086045;28;20209;-62
2023/03/12 06:29:48;;;;;;;1999.90;999.90;;;;;;;2.97;100.00;94910.66;5085406;28;20165;-62
2023/03/12 06:32:14;;;;;;;1999.90;999.90;;;;;;;2.96;100.00;94914.50;5086351;28;20185;-62
2023/03/12 06:34:39;;;;;;;1999.90;999.90;;;;;;;3.02;100.00;94907.63;5085984;28;20169;-63
2023/03/12 06:37:04;;;;;;;1999.90;999.90;;;;;;;3.09;100.00;94915.81;5085850;28;20437;-63
2023/03/12 06:39:33;;;;;;;1999.90;999.90;;;;;;;3.17;100.00;94919.38;5086302;28;20169;-63
2023/03/12 06:41:58;;;;;;;1999.90;999.90;;;;;;;3.24;100.00;94925.63;5086516;28;20166;-64
2023/03/12 06:44:24;;;;;;;1999.90;999.90;;;;;;;3.38;100.00;94925.78;5085765;28;20162;-62
2023/03/12 06:46:51;;;;;;;1999.90;999.90;;;;;;;3.51;100.00;94924.38;5086614;28;20214;-64
2023/03/12 06:49:16;;;;;;;1999.90;999.90;;;;;;;3.65;100.00;94933.78;5085606;28;20172;-63
2023/03/12 06:51:42;;;;;;;1999.90;999.90;;;;;;;3.67;100.00;94936.91;5085432;28;20181;-64
2023/03/12 06:54:07;;;;;;;1999.90;999.90;;;;;;;3.73;100.00;94940.81;5085414;28;20185;-61
2023/03/12 06:56:33;;;;;;;1999.90;999.90;;;;;;;3.79;100.00;94947.44;5085674;28;20172;-60
2023/03/12 06:58:58;;;;;;;1999.90;999.90;;;;;;;3.78;100.00;94949.34;5085809;28;20347;-63
2023/03/12 07:01:24;;;;;;;1999.90;999.90;;;;;;;3.75;100.00;94954.72;5085777;28;20165;-62
2023/03/12 07:03:49;;;;;;;1999.90;999.90;;;;;;;3.68;100.00;94957.34;5086029;28;20184;-62
2023/03/12 07:06:19;;;;;;;1999.90;999.90;;;;;;;3.70;100.00;94963.91;5085721;28;20165;-62
2023/03/12 07:08:45;;;;;;;1999.90;999.90;;;;;;;3.78;100.00;94962.09;5085646;28;20157;-62
2023/03/12 07:11:12;;;;;;;1999.90;999.90;;;;;;;3.84;100.00;94963.28;5085247;28;20165;-62
2023/03/12 07:13:38;;;;;;;1999.90;999.90;;;;;;;3.99;100.00;94954.16;5085045;28;20201;-61
2023/03/12 07:16:05;;;;;;;1999.90;999.90;;;;;;;4.11;100.00;94953.91;5085062;28;20161;-61
2023/03/12 07:18:30;;;;;;;1999.90;999.90;;;;;;;4.10;100.00;94955.84;5084977;28;20365;-63
2023/03/12 07:20:56;;;;;;;1999.90;999.90;;;;;;;4.16;100.00;94945.47;5085177;28;20168;-62
2023/03/12 07:23:21;;;;;;;1999.90;999.90;;;;;;;4.16;100.00;94945.47;5084812;28;20414;-62
2023/03/12 07:25:47;;;;;;;1999.90;999.90;;;;;;;4.24;100.00;94947.06;5084868;28;20184;-63
2023/03/12 07:28:14;;;;;;;1999.90;999.90;;;;;;;4.13;100.00;94943.50;5085005;28;20266;-62
2023/03/12 07:30:40;;;;;;;1999.90;999.90;;;;;;;4.17;100.00;94933.50;5084774;28;20167;-62
2023/03/12 07:33:10;;;;;;;1999.90;999.90;;;;;;;4.27;100.00;94932.81;5085286;28;20496;-62
2023/03/12 07:35:38;;;;;;;1999.90;999.90;;;;;;;4.46;100.00;94924.47;5085036;28;20197;-64
2023/03/12 07:38:04;;;;;;;1999.90;999.90;;;;;;;4.58;100.00;94918.75;5084772;28;20195;-63
2023/03/12 07:40:30;;;;;;;1999.90;999.90;;;;;;;4.70;100.00;94923.88;5084187;28;20185;-63
2023/03/12 07:42:56;;;;;;;1999.90;999.90;;;;;;;4.90;100.00;94923.22;5084599;28;20177;-60
2023/03/12 07:45:22;;;;;;;1999.90;999.90;;;;;;;5.05;100.00;94913.22;5084521;28;20174;-61
2023/03/12 07:47:48;;;;;;;1999.90;999.90;;;;;;;5.12;100.00;94919.47;5084511;28;20451;-61
2023/03/12 07:50:15;;;;;;;1999.90;999.90;;;;;;;5.20;100.00;94920.25;5084870;28;20286;-61
2023/03/12 07:52:40;;;;;;;1999.90;999.90;;;;;;;5.36;100.00;94920.72;5084210;28;20214;-61
2023/03/12 07:55:06;;;;;;;1999.90;999.90;;;;;;;5.65;100.00;94930.47;5084299;28;20218;-61
2023/03/12 07:57:32;;;;;;;1999.90;999.90;;;;;;;5.87;100.00;94932.13;5084268;28;20175;-61
2023/03/12 07:59:57;;;;;;;1999.90;999.90;;;;;;;5.78;100.00;94931.66;5084487;28;20183;-61
2023/03/12 08:02:22;;;;;;;1999.90;999.90;;;;;;;5.82;100.00;94935.97;5084217;28;20365;-62
2023/03/12 08:04:48;;;;;;;1999.90;999.90;;;;;;;5.94;100.00;94932.88;5084661;28;20329;-61
2023/03/12 08:07:13;;;;;;;1999.90;999.90;;;;;;;6.02;100.00;94939.88;5084149;28;20173;-68
2023/03/12 08:09:39;;;;;;;1999.90;999.90;;;;;;;5.95;100.00;94956.13;5084147;28;20183;-60
2023/03/12 08:12:05;;;;;;;1999.90;999.90;;;;;;;5.82;100.00;94954.16;5084030;28;20396;-64
2023/03/12 08:14:30;;;;;;;1999.90;999.90;;;;;;;5.78;100.00;94956.03;5083991;28;20183;-63
2023/03/12 08:16:57;;;;;;;1999.90;999.90;;;;;;;5.80;100.00;94951.03;5084654;28;20171;-65
2023/03/12 08:19:23;;;;;;;1999.90;999.90;;;;;;;5.79;100.00;94952.19;5084098;28;20176;-64
2023/03/12 08:21:49;;;;;;;1999.90;999.90;;;;;;;5.85;100.00;94951.47;5084452;28;20445;-62
2023/03/12 08:24:15;;;;;;;1999.90;999.90;;;;;;;5.96;100.00;94959.59;5084414;28;20180;-63
2023/03/12 08:26:41;;;;;;;1999.90;999.90;;;;;;;5.92;100.00;94956.91;5083774;28;20247;-63
2023/03/12 08:29:06;;;;;;;1999.90;999.90;;;;;;;5.83;100.00;94953.00;5084264;28;20187;-62
2023/03/12 08:31:32;;;;;;;1999.90;999.90;;;;;;;5.69;100.00;94953.69;5083802;28;20174;-64
2023/03/12 08:33:57;;;;;;;1999.90;999.90;;;;;;;5.65;100.00;94949.44;5083766;28;20239;-66
2023/03/12 08:36:22;;;;;;;1999.90;999.90;;;;;;;5.70;100.00;94943.63;5083779;28;20173;-64
2023/03/12 08:38:48;;;;;;;1999.90;999.90;;;;;;;5.73;100.00;94948.31;5084459;28;20179;-63
2023/03/12 08:41:13;;;;;;;1999.90;999.90;;;;;;;5.73;100.00;94951.00;5084086;28;20199;-62
2023/03/12 08:43:38;;;;;;;1999.90;999.90;;;;;;;5.70;100.00;94955.25;5083625;28;20459;-64
2023/03/12 08:46:04;;;;;;;1999.90;999.90;;;;;;;5.74;100.00;94947.13;5083677;28;20179;-62
2023/03/12 08:48:30;;;;;;;1999.90;999.90;;;;;;;5.81;100.00;94955.31;5083689;28;20235;-63
2023/03/12 08:50:58;;;;;;;1999.90;999.90;;;;;;;5.83;100.00;94953.00;5083616;28;20176;-64
2023/03/12 08:53:24;;;;;;;1999.90;999.90;;;;;;;5.81;100.00;94949.91;5087848;28;20489;-62
2023/03/12 08:55:54;;;;;;;1999.90;999.90;;;;;;;5.74;100.00;94955.25;5088196;28;20193;-61
2023/03/12 08:58:20;;;;;;;1999.90;999.90;;;;;;;5.73;100.00;94942.88;5088142;28;20183;-62
2023/03/12 09:00:45;;;;;;;1999.90;999.90;;;;;;;5.71;100.00;94942.47;5088251;28;20454;-64
2023/03/12 09:03:13;;;;;;;1999.90;999.90;;;;;;;5.54;100.00;94940.50;5087169;28;20226;-63
2023/03/12 09:05:39;;;;;;;1999.90;999.90;;;;;;;5.52;100.00;94934.69;5087558;28;20184;-64
2023/03/12 09:08:04;;;;;;;1999.90;999.90;;;;;;;5.55;100.00;94910.34;5087380;28;20170;-64
2023/03/12 09:10:30;;;;;;;1999.90;999.90;;;;;;;5.57;100.00;94909.97;5087590;28;20183;-63
2023/03/12 09:12:55;;;;;;;1999.90;999.90;;;;;;;5.69;100.00;94904.19;5087324;28;20466;-64
2023/03/12 09:15:20;;;;;;;1999.90;999.90;;;;;;;5.75;100.00;94897.22;5087758;28;20194;-64
2023/03/12 09:17:46;;;;;;;1999.90;999.90;;;;;;;6.02;100.00;94882.19;5087564;28;20180;-62
2023/03/12 09:20:15;;;;;;;1999.90;999.90;;;;;;;6.37;100.00;94882.19;5087695;28;20190;-63
2023/03/12 09:22:41;;;;;;;1999.90;999.90;;;;;;;6.45;100.00;94886.47;5087110;28;20172;-64
2023/03/12 09:25:08;;;;;;;1999.90;999.90;;;;;;;6.27;100.00;94894.59;5087524;28;20177;-64
2023/03/12 09:27:44;;;;;;;1999.90;999.90;;;;;;;6.14;100.00;94898.06;5086768;28;20265;-62
2023/03/12 09:30:16;;;;;;;1999.90;999.90;;;;;;;5.76;100.00;94898.78;5087603;28;20329;-63
2023/03/12 09:32:45;;;;;;;1999.90;999.90;;;;;;;5.53;100.00;94892.91;5087404;28;20267;-63
2023/03/12 09:35:12;;;;;;;1999.90;999.90;;;;;;;5.65;100.00;94887.91;5087044;28;20183;-64
2023/03/12 09:37:38;;;;;;;1999.90;999.90;;;;;;;5.57;100.00;94877.47;5086924;28;20215;-64
2023/03/12 09:40:06;;;;;;;1999.90;999.90;;;;;;;5.28;100.00;94873.13;5086918;28;20390;-65
2023/03/12 09:43:01;;;;;;;1999.90;999.90;;;;;;;5.37;100.00;94873.53;5086809;28;20176;-64
2023/03/12 09:45:31;;;;;;;1999.90;999.90;;;;;;;5.49;100.00;94863.13;5086534;28;20198;-64
2023/03/12 09:48:01;;;;;;;1999.90;999.90;;;;;;;5.29;100.00;94853.81;5086493;28;20172;-70
2023/03/12 09:50:39;;;;;;;1999.90;999.90;;;;;;;5.37;100.00;94838.34;5086746;28;20172;-65
2023/03/12 09:53:32;;;;;;;1999.90;999.90;;;;;;;5.14;100.00;94829.78;5086313;28;20222;-66
2023/03/12 09:56:01;;;;;;;1999.90;999.90;;;;;;;5.01;100.00;94817.75;5086876;28;20168;-66
2023/03/12 09:58:35;;;;;;;1999.90;999.90;;;;;;;5.02;100.00;94803.06;5087031;28;20244;-65
2023/03/12 10:01:25;;;;;;;1999.90;999.90;;;;;;;4.73;100.00;94798.72;5087085;28;20174;-65
2023/03/12 10:04:21;;;;;;;1999.90;999.90;;;;;;;4.84;100.00;94788.72;5085676;28;20213;-66
2023/03/12 10:07:10;;;;;;;1999.90;999.90;;;;;;;4.48;100.00;94770.81;5086395;28;20179;-66
2023/03/12 10:10:09;;;;;;;1999.90;999.90;;;;;;;4.25;100.00;94773.00;5087246;28;20226;-64
2023/03/12 10:13:12;;;;;;;1999.90;999.90;;;;;;;4.33;100.00;94723.25;5086969;28;20249;-63
2023/03/12 10:16:16;;;;;;;1999.90;999.90;;;;;;;4.51;100.00;94651.88;5086863;28;20181;-63
2023/03/12 10:19:12;;;;;;;1999.90;999.90;;;;;;;4.61;100.00;94586.25;5063452;28;20181;-64
2023/03/12 10:21:48;;;;;;;1999.90;999.90;;;;;;;4.73;100.00;94533.75;5085859;28;20222;-64
2023/03/12 10:24:37;;;;;;;1999.90;999.90;;;;;;;4.81;100.00;94356.81;5086597;28;20165;-63
2023/03/12 10:27:13;;;;;;;1999.90;999.90;;;;;;;4.91;100.00;94297.25;5086290;28;20229;-64
2023/03/12 10:29:42;;;;;;;1999.90;999.90;;;;;;;4.85;100.00;94277.19;5086080;28;20170;-65
2023/03/12 10:32:16;;;;;;;1999.90;999.90;;;;;;;4.71;100.00;94247.53;5086132;28;20196;-64
2023/03/12 10:34:48;;;;;;;1999.90;999.90;;;;;;;4.28;100.00;94253.47;5086056;28;20237;-65
2023/03/12 10:37:44;;;;;;;1999.90;999.90;;;;;;;4.12;100.00;94239.66;5086359;28;20165;-64
2023/03/12 10:40:22;;;;;;;1999.90;999.90;;;;;;;3.88;100.00;94208.06;5077474;28;20268;-64
2023/03/12 10:42:48;;;;;;;1999.90;999.90;;;;;;;4.00;100.00;94161.75;5086238;28;20166;-65
2023/03/12 10:45:33;;;;;;;1999.90;999.90;;;;;;;3.99;100.00;94125.09;5085765;28;20358;-65
2023/03/12 10:48:03;;;;;;;1999.90;999.90;;;;;;;4.06;100.00;94079.94;5086218;28;20175;-66
2023/03/12 10:50:31;;;;;;;1999.90;999.90;;;;;;;4.07;100.00;94059.88;5086222;28;20171;-66
2023/03/12 10:53:25;;;;;;;1999.90;999.90;;;;;;;4.20;100.00;94062.88;5085394;28;20498;-65
2023/03/12 10:56:09;;;;;;;1999.90;999.90;;;;;;;4.26;100.00;94083.66;5085855;28;20196;-65
2023/03/12 10:58:50;;;;;;;1999.90;999.90;;;;;;;4.30;100.00;94032.34;5085874;28;20178;-65